Terminal Aerodrome Forecast
Issued by NWS

Home | Current Version | Previous Version | Text Only | Print | Product List | Glossary On
Versions: 1 2 3 4 5 6 7 8 9 10 11 12 13 14 15 16 17 18 19 20 21 22 23 24
000
FTUS43 KDLH 310300 AAA
TAFHYR
TAF AMD
KHYR 310333Z 3104/3124 18006KT P6SM BKN025 OVC035
     FM311000 30006KT P6SM SCT022 BKN040
     FM311500 33006G13KT P6SM BKN025
     FM312100 01009G17KT P6SM SCT018 BKN028
      TEMPO 3121/3124 4SM -SHSN BKN022=

USA.gov is the U.S. government's official web portal to all federal, state and local government web resources and services.